Thursday, May 24, 2018, 3:11 PM EDT
Back to Local

K1P1, Plymouth, Plymouth Municipal Airport

Location: Plymouth, NH, United States Lat: 43.779
Local Time: 3:11 PM EDT (19:11 GMT) Lon: -71.754
Time Zone: US/Eastern Elev: 505 ft

Show me the last for .
Show Decoded

2018-05-24 14:55 METAR K1P1 241855Z AUTO 31008G15KT 10SM CLR 21/00 A3006 RMK AO2 T02100004 =
2018-05-24 14:35 METAR K1P1 241835Z AUTO 29010G15KT 10SM CLR 21/00 A3007 RMK AO2 T02061004 =
2018-05-24 14:15 METAR K1P1 241815Z AUTO 29005KT 10SM CLR 20/00 A3007 RMK AO2 T02010001 =
2018-05-24 13:55 METAR K1P1 241755Z AUTO 32010G20KT 10SM CLR 20/M01 A3008 RMK AO2 T01951010 10196
                 20120 =
2018-05-24 13:35 METAR K1P1 241735Z AUTO 30012G20KT 290V360 7SM CLR 20/00 A3010 RMK AO2 T01951004
                 =
2018-05-24 13:15 METAR K1P1 241715Z AUTO 30011G20KT 7SM CLR 19/00 A3010 RMK AO2 T01911001 =
2018-05-24 12:55 METAR K1P1 241655Z AUTO 31010G15KT 10SM CLR 19/M01 A3010 RMK AO2 T01871011 =
2018-05-24 12:35 METAR K1P1 241635Z AUTO 29010G16KT 270V330 10SM CLR 19/00 A3011 RMK AO2
                 T01871004 =
2018-05-24 12:15 METAR K1P1 241615Z AUTO 30008G17KT 10SM CLR 18/M01 A3011 RMK AO2 T01821007 =
2018-05-24 11:55 METAR K1P1 241555Z AUTO 28010G16KT 10SM CLR 18/00 A3012 RMK AO2 T01791003 =
2018-05-24 11:35 METAR K1P1 241535Z AUTO 30008KT 10SM BKN085 17/M01 A3012 RMK AO2 T01721007 =
2018-05-24 11:15 METAR K1P1 241515Z AUTO 31009G14KT 10SM OVC085 16/M01 A3013 RMK AO2 T01641015 =
2018-05-24 10:55 METAR K1P1 241455Z AUTO 31009KT 7SM OVC085 16/M01 A3012 RMK AO2 T01611006 =
2018-05-24 10:35 METAR K1P1 241435Z AUTO 30009KT 10SM OVC085 16/M02 A3012 RMK AO2 T01601020 =
2018-05-24 10:15 METAR K1P1 241415Z AUTO 29008KT 10SM BKN095 16/M03 A3012 RMK AO2 T01581031 =
2018-05-24 09:55 METAR K1P1 241355Z AUTO 30007KT 10SM OVC095 16/M01 A3012 RMK AO2 T01551009 =
2018-05-24 09:35 METAR K1P1 241335Z AUTO 29005KT 10SM OVC095 15/02 A3011 RMK AO2 T01520019 =
2018-05-24 09:15 METAR K1P1 241315Z AUTO 28007KT 10SM BKN095 15/02 A3011 RMK AO2 T01510018 =
2018-05-24 08:55 METAR K1P1 241255Z AUTO 29007KT 10SM CLR 15/03 A3011 RMK AO2 T01460026 =
2018-05-24 08:35 METAR K1P1 241235Z AUTO 27008G14KT 10SM CLR 14/03 A3011 RMK AO2 T01400033 =
2018-05-24 08:15 METAR K1P1 241215Z AUTO 28008KT 240V300 10SM SCT100 13/04 A3010 RMK AO2
                 T01340041 =
2018-05-24 07:55 METAR K1P1 241155Z AUTO 29004KT 10SM SCT100 12/05 A3010 RMK AO2 70001 T01200048
                 10120 20059 =
2018-05-24 07:35 METAR K1P1 241135Z AUTO 00000KT 10SM CLR 11/08 A3009 RMK AO2 T01110075 =
2018-05-24 07:15 METAR K1P1 241115Z AUTO 06003KT 10SM CLR 10/09 A3009 RMK AO2 T00950085 =
2018-05-24 06:55 METAR K1P1 241055Z AUTO 00000KT 10SM CLR 08/08 A3009 RMK AO2 T00840080 =
2018-05-24 06:35 METAR K1P1 241035Z AUTO 00000KT 10SM CLR 08/07 A3008 RMK AO2 T00770073 =
2018-05-24 06:15 METAR K1P1 241015Z AUTO 00000KT 4SM BR CLR 06/06 A3007 RMK AO2 T00630060 =
2018-05-24 05:55 METAR K1P1 240955Z AUTO 00000KT 4SM BR SCT003 06/06 A3006 RMK AO2 T00600057 =
2018-05-24 05:35 METAR K1P1 240935Z AUTO 00000KT 4SM BR CLR 06/06 A3005 RMK AO2 T00630060 =
2018-05-24 05:15 METAR K1P1 240915Z AUTO 00000KT 5SM BR CLR 06/06 A3004 RMK AO2 T00640060 =
2018-05-24 04:55 METAR K1P1 240855Z AUTO 00000KT 5SM BR CLR 06/06 A3004 RMK AO2 T00610057 =
2018-05-24 04:35 METAR K1P1 240835Z AUTO 00000KT 1SM BR VV007 06/06 A3003 RMK AO2 T00600055 =
2018-05-24 04:15 METAR K1P1 240815Z AUTO 00000KT 1 1/4SM BR BKN016 06/06 A3003 RMK AO2 T00640060
                 =
2018-05-24 03:55 METAR K1P1 240755Z AUTO 00000KT 2 1/2SM BR OVC018 07/06 A3003 RMK AO2 VIS 3/4V5
                 T00670063 =
2018-05-24 03:35 METAR K1P1 240735Z AUTO 00000KT 1 3/4SM BR BKN018 07/06 A3003 RMK AO2 T00680063
                 =
2018-05-24 03:15 METAR K1P1 240715Z AUTO 00000KT 7SM CLR 07/07 A3002 RMK AO2 T00730068 =
2018-05-24 02:55 METAR K1P1 240655Z AUTO 00000KT 3SM BR CLR 08/07 A3002 RMK AO2 T00750070 =
2018-05-24 02:35 METAR K1P1 240635Z AUTO 00000KT 5SM BR CLR 08/07 A3001 RMK AO2 T00750069 =
2018-05-24 02:15 METAR K1P1 240615Z AUTO 00000KT 7SM CLR 08/07 A3002 RMK AO2 T00800074 =
2018-05-24 01:55 METAR K1P1 240555Z AUTO 00000KT 10SM CLR 08/07 A3001 RMK AO2 T00800073 10210
                 20080 =
2018-05-24 01:35 METAR K1P1 240535Z AUTO 26003KT 10SM CLR 08/08 A3001 RMK AO2 T00840077 =
2018-05-24 01:15 METAR K1P1 240515Z AUTO 00000KT 5SM BR CLR 08/08 A3001 RMK AO2 T00840077 =
2018-05-24 00:55 METAR K1P1 240455Z AUTO 00000KT 2SM BR CLR 08/08 A3000 RMK AO2 VIS 1/2V5
                 T00820075 =
2018-05-24 00:35 METAR K1P1 240435Z AUTO 00000KT 2 1/2SM BR CLR 09/08 A3000 RMK AO2 T00870080 =
2018-05-24 00:15 METAR K1P1 240415Z AUTO 00000KT 10SM CLR 09/08 A2999 RMK AO2 T00890080 =
2018-05-23 23:55 METAR K1P1 240355Z AUTO 00000KT 10SM CLR 10/09 A2999 RMK AO2 T00950085 402600095
                 =
2018-05-23 23:35 METAR K1P1 240335Z AUTO 00000KT 10SM CLR 10/09 A2998 RMK AO2 T00960086 =
2018-05-23 23:15 METAR K1P1 240315Z AUTO 00000KT 10SM CLR 10/09 A2998 RMK AO2 T01030091 =
2018-05-23 22:55 METAR K1P1 240255Z AUTO 00000KT 10SM CLR 11/09 A2997 RMK AO2 T01080093 =
2018-05-23 22:35 METAR K1P1 240235Z AUTO 00000KT 10SM CLR 11/10 A2997 RMK AO2 T01130096 =
2018-05-23 22:15 METAR K1P1 240215Z AUTO 00000KT 10SM CLR 12/10 A2996 RMK AO2 LTG DSNT SE
                 T01200096 =
2018-05-23 21:55 METAR K1P1 240155Z AUTO 00000KT 10SM CLR 13/10 A2996 RMK AO2 T01310097 =
2018-05-23 21:35 METAR K1P1 240135Z AUTO 00000KT 10SM CLR 14/10 A2996 RMK AO2 T01390096 =
2018-05-23 21:15 METAR K1P1 240115Z AUTO 00000KT 10SM CLR 15/09 A2996 RMK AO2 T01490093 =
2018-05-23 20:55 METAR K1P1 240055Z AUTO 00000KT 10SM CLR 16/10 A2995 RMK AO2 T01580099 =
2018-05-23 20:35 METAR K1P1 240035Z AUTO 00000KT 10SM SCT070 19/08 A2994 RMK AO2 T01870083 =
2018-05-23 20:15 METAR K1P1 240015Z AUTO 00000KT 10SM BKN070 BKN085 20/06 A2993 RMK AO2 T02020061
                 =
2018-05-23 19:55 METAR K1P1 232355Z AUTO 33004KT 10SM SCT070 21/06 A2992 RMK AO2 T02110055 10260
                 20211 =
2018-05-23 19:35 METAR K1P1 232335Z AUTO 34007KT 10SM CLR 22/05 A2991 RMK AO2 T02160053 =
2018-05-23 19:15 METAR K1P1 232315Z AUTO 33005KT 10SM CLR 22/05 A2990 RMK AO2 T02230047 =
2018-05-23 18:55 METAR K1P1 232255Z AUTO 32007G18KT 10SM CLR 22/06 A2989 RMK AO2 T02240057 =
2018-05-23 18:35 METAR K1P1 232235Z AUTO 32007KT 10SM CLR 22/07 A2988 RMK AO2 T02240071 =
2018-05-23 18:15 METAR K1P1 232215Z AUTO 32007G14KT 10SM CLR 22/08 A2987 RMK AO2 T02210076 =
2018-05-23 17:55 METAR K1P1 232155Z AUTO 32006KT 10SM CLR 23/08 A2987 RMK AO2 T02300078 =
2018-05-23 17:35 METAR K1P1 232135Z AUTO 31012G16KT 10SM CLR 24/07 A2986 RMK AO2 T02350074 =
2018-05-23 17:15 METAR K1P1 232115Z AUTO 31012G22KT 10SM CLR 24/06 A2984 RMK AO2 T02400063 =
2018-05-23 16:55 METAR K1P1 232055Z AUTO 31009G21KT 10SM CLR 24/05 A2983 RMK AO2 T02440046 =
2018-05-23 16:35 METAR K1P1 232035Z AUTO 30012G25KT 10SM CLR 25/05 A2983 RMK AO2 T02530048 =
2018-05-23 16:15 METAR K1P1 232015Z AUTO 29008G20KT 250V310 10SM CLR 25/05 A2982 RMK AO2
                 T02520054 =
2018-05-23 15:55 METAR K1P1 231955Z AUTO 28009G25KT 10SM CLR 26/05 A2982 RMK AO2 LTG DSNT E
                 T02550045 =
2018-05-23 15:35 METAR K1P1 231935Z AUTO 30014G21KT 10SM CLR 25/06 A2982 RMK AO2 T02540056 =
2018-05-23 15:15 METAR K1P1 231915Z AUTO 30013G29KT 10SM CLR 26/05 A2983 RMK AO2 T02550046 =

Support USWX by starting your Amazon purchase here.